sensor_id;sensor_type;location;lat;lon;timestamp;temperature;humidity
18446;DHT22;9352;50.888;4.466;2023-11-18T00:00:54;6.80;99.90
18446;DHT22;9352;50.888;4.466;2023-11-18T00:03:21;6.70;99.90
18446;DHT22;9352;50.888;4.466;2023-11-18T00:05:48;6.80;99.90
18446;DHT22;9352;50.888;4.466;2023-11-18T00:08:16;6.80;99.90
18446;DHT22;9352;50.888;4.466;2023-11-18T00:10:43;6.80;99.90
18446;DHT22;9352;50.888;4.466;2023-11-18T00:13:10;6.80;99.90
18446;DHT22;9352;50.888;4.466;2023-11-18T00:15:36;6.80;99.90
18446;DHT22;9352;50.888;4.466;2023-11-18T00:18:03;6.80;99.90
18446;DHT22;9352;50.888;4.466;2023-11-18T00:20:30;6.80;99.90
18446;DHT22;9352;50.888;4.466;2023-11-18T00:22:57;6.80;99.90
18446;DHT22;9352;50.888;4.466;2023-11-18T00:25:25;6.80;99.90
18446;DHT22;9352;50.888;4.466;2023-11-18T00:27:52;6.70;99.90
18446;DHT22;9352;50.888;4.466;2023-11-18T00:30:20;6.70;99.90
18446;DHT22;9352;50.888;4.466;2023-11-18T00:32:47;6.70;99.90
18446;DHT22;9352;50.888;4.466;2023-11-18T00:35:14;6.70;99.90
18446;DHT22;9352;50.888;4.466;2023-11-18T00:37:41;6.60;99.90
18446;DHT22;9352;50.888;4.466;2023-11-18T00:40:09;6.60;99.90
18446;DHT22;9352;50.888;4.466;2023-11-18T00:42:38;6.60;99.90
18446;DHT22;9352;50.888;4.466;2023-11-18T00:45:06;6.70;99.90
18446;DHT22;9352;50.888;4.466;2023-11-18T00:47:33;6.60;99.90
18446;DHT22;9352;50.888;4.466;2023-11-18T00:50:00;6.70;99.90
18446;DHT22;9352;50.888;4.466;2023-11-18T00:52:27;6.60;99.90
18446;DHT22;9352;50.888;4.466;2023-11-18T00:54:54;6.60;99.90
18446;DHT22;9352;50.888;4.466;2023-11-18T00:57:21;6.60;99.90
18446;DHT22;9352;50.888;4.466;2023-11-18T00:59:49;6.70;99.90
18446;DHT22;9352;50.888;4.466;2023-11-18T01:02:16;6.70;99.90
18446;DHT22;9352;50.888;4.466;2023-11-18T01:04:43;6.70;99.90
18446;DHT22;9352;50.888;4.466;2023-11-18T01:07:11;6.70;99.90
18446;DHT22;9352;50.888;4.466;2023-11-18T01:09:38;6.80;99.90
18446;DHT22;9352;50.888;4.466;2023-11-18T01:12:06;6.80;99.90
18446;DHT22;9352;50.888;4.466;2023-11-18T01:14:35;6.80;99.90
18446;DHT22;9352;50.888;4.466;2023-11-18T01:17:04;6.90;99.90
18446;DHT22;9352;50.888;4.466;2023-11-18T01:19:31;6.90;99.90
18446;DHT22;9352;50.888;4.466;2023-11-18T01:21:59;6.90;99.90
18446;DHT22;9352;50.888;4.466;2023-11-18T01:24:26;6.90;99.90
18446;DHT22;9352;50.888;4.466;2023-11-18T01:26:53;7.00;99.90
18446;DHT22;9352;50.888;4.466;2023-11-18T01:29:20;7.00;99.90
18446;DHT22;9352;50.888;4.466;2023-11-18T01:31:47;7.00;99.90
18446;DHT22;9352;50.888;4.466;2023-11-18T01:34:16;7.00;99.90
18446;DHT22;9352;50.888;4.466;2023-11-18T01:36:44;7.00;99.90
18446;DHT22;9352;50.888;4.466;2023-11-18T01:39:11;7.00;99.90
18446;DHT22;9352;50.888;4.466;2023-11-18T01:41:38;7.00;99.90
18446;DHT22;9352;50.888;4.466;2023-11-18T01:44:05;7.00;99.90
18446;DHT22;9352;50.888;4.466;2023-11-18T01:46:33;7.00;99.90
18446;DHT22;9352;50.888;4.466;2023-11-18T01:49:02;7.00;99.90
18446;DHT22;9352;50.888;4.466;2023-11-18T01:51:30;7.00;99.90
18446;DHT22;9352;50.888;4.466;2023-11-18T01:53:59;7.00;99.90
18446;DHT22;9352;50.888;4.466;2023-11-18T01:56:28;7.00;99.90
18446;DHT22;9352;50.888;4.466;2023-11-18T01:58:54;7.00;99.90
18446;DHT22;9352;50.888;4.466;2023-11-18T02:01:25;7.00;99.90
18446;DHT22;9352;50.888;4.466;2023-11-18T02:03:53;7.00;99.90
18446;DHT22;9352;50.888;4.466;2023-11-18T02:06:20;7.00;99.90
18446;DHT22;9352;50.888;4.466;2023-11-18T02:08:48;7.00;99.90
18446;DHT22;9352;50.888;4.466;2023-11-18T02:11:20;7.00;99.90
18446;DHT22;9352;50.888;4.466;2023-11-18T02:13:52;7.00;99.90
18446;DHT22;9352;50.888;4.466;2023-11-18T02:16:20;7.00;99.90
18446;DHT22;9352;50.888;4.466;2023-11-18T02:18:49;7.00;99.90
18446;DHT22;9352;50.888;4.466;2023-11-18T02:21:17;7.00;99.90
18446;DHT22;9352;50.888;4.466;2023-11-18T02:23:44;7.10;99.90
18446;DHT22;9352;50.888;4.466;2023-11-18T02:26:21;7.10;99.90
18446;DHT22;9352;50.888;4.466;2023-11-18T02:28:48;7.00;99.90
18446;DHT22;9352;50.888;4.466;2023-11-18T02:31:20;7.10;99.90
18446;DHT22;9352;50.888;4.466;2023-11-18T02:33:53;7.10;99.90
18446;DHT22;9352;50.888;4.466;2023-11-18T02:36:29;7.10;99.90
18446;DHT22;9352;50.888;4.466;2023-11-18T02:39:04;7.10;99.90
18446;DHT22;9352;50.888;4.466;2023-11-18T02:41:35;7.10;99.90
18446;DHT22;9352;50.888;4.466;2023-11-18T02:44:03;7.10;99.90
18446;DHT22;9352;50.888;4.466;2023-11-18T02:46:34;7.10;99.90
18446;DHT22;9352;50.888;4.466;2023-11-18T02:49:02;7.10;99.90
18446;DHT22;9352;50.888;4.466;2023-11-18T02:51:30;7.20;99.90
18446;DHT22;9352;50.888;4.466;2023-11-18T02:53:59;7.20;99.90
18446;DHT22;9352;50.888;4.466;2023-11-18T02:56:26;7.20;99.90
18446;DHT22;9352;50.888;4.466;2023-11-18T02:58:54;7.20;99.90
18446;DHT22;9352;50.888;4.466;2023-11-18T03:01:21;7.20;99.90
18446;DHT22;9352;50.888;4.466;2023-11-18T03:03:48;7.20;99.90
18446;DHT22;9352;50.888;4.466;2023-11-18T03:06:15;7.10;99.90
18446;DHT22;9352;50.888;4.466;2023-11-18T03:08:42;7.10;99.90
18446;DHT22;9352;50.888;4.466;2023-11-18T03:11:09;7.10;99.90
18446;DHT22;9352;50.888;4.466;2023-11-18T03:13:38;7.10;99.90
18446;DHT22;9352;50.888;4.466;2023-11-18T03:16:08;7.10;99.90
18446;DHT22;9352;50.888;4.466;2023-11-18T03:18:38;7.10;99.90
18446;DHT22;9352;50.888;4.466;2023-11-18T03:21:06;7.10;99.90
18446;DHT22;9352;50.888;4.466;2023-11-18T03:23:33;7.20;99.90
18446;DHT22;9352;50.888;4.466;2023-11-18T03:26:00;7.20;99.90
18446;DHT22;9352;50.888;4.466;2023-11-18T03:28:27;7.20;99.90
18446;DHT22;9352;50.888;4.466;2023-11-18T03:30:54;7.30;99.90
18446;DHT22;9352;50.888;4.466;2023-11-18T03:33:22;7.30;99.90
18446;DHT22;9352;50.888;4.466;2023-11-18T03:35:49;7.30;99.90
18446;DHT22;9352;50.888;4.466;2023-11-18T03:38:16;7.30;99.90
18446;DHT22;9352;50.888;4.466;2023-11-18T03:40:43;7.40;99.90
18446;DHT22;9352;50.888;4.466;2023-11-18T03:43:12;7.40;99.90
18446;DHT22;9352;50.888;4.466;2023-11-18T03:45:39;7.40;99.90
18446;DHT22;9352;50.888;4.466;2023-11-18T03:48:06;7.40;99.90
18446;DHT22;9352;50.888;4.466;2023-11-18T03:50:34;7.40;99.90
18446;DHT22;9352;50.888;4.466;2023-11-18T03:53:01;7.40;99.90
18446;DHT22;9352;50.888;4.466;2023-11-18T03:55:29;7.40;99.90
18446;DHT22;9352;50.888;4.466;2023-11-18T03:57:56;7.40;99.90
18446;DHT22;9352;50.888;4.466;2023-11-18T04:00:23;7.40;99.90
18446;DHT22;9352;50.888;4.466;2023-11-18T04:02:55;7.40;99.90
18446;DHT22;9352;50.888;4.466;2023-11-18T04:05:22;7.40;99.90
18446;DHT22;9352;50.888;4.466;2023-11-18T04:07:50;7.50;99.90
18446;DHT22;9352;50.888;4.466;2023-11-18T04:10:17;7.50;99.90
18446;DHT22;9352;50.888;4.466;2023-11-18T04:12:46;7.50;99.90
18446;DHT22;9352;50.888;4.466;2023-11-18T04:15:14;7.50;99.90
18446;DHT22;9352;50.888;4.466;2023-11-18T04:17:41;7.50;99.90
18446;DHT22;9352;50.888;4.466;2023-11-18T04:20:10;7.50;99.90
18446;DHT22;9352;50.888;4.466;2023-11-18T04:22:39;7.50;99.90
18446;DHT22;9352;50.888;4.466;2023-11-18T04:25:08;7.50;99.90
18446;DHT22;9352;50.888;4.466;2023-11-18T04:27:35;7.60;99.90
18446;DHT22;9352;50.888;4.466;2023-11-18T04:30:03;7.50;99.90
18446;DHT22;9352;50.888;4.466;2023-11-18T04:32:30;7.60;99.90
18446;DHT22;9352;50.888;4.466;2023-11-18T04:34:58;7.60;99.90
18446;DHT22;9352;50.888;4.466;2023-11-18T04:37:25;7.50;99.90
18446;DHT22;9352;50.888;4.466;2023-11-18T04:39:52;7.60;99.90
18446;DHT22;9352;50.888;4.466;2023-11-18T04:42:22;7.60;99.90
18446;DHT22;9352;50.888;4.466;2023-11-18T04:44:49;7.60;99.90
18446;DHT22;9352;50.888;4.466;2023-11-18T04:47:15;7.70;99.90
18446;DHT22;9352;50.888;4.466;2023-11-18T04:49:44;7.70;99.90
18446;DHT22;9352;50.888;4.466;2023-11-18T04:52:10;7.70;99.90
18446;DHT22;9352;50.888;4.466;2023-11-18T04:54:37;7.70;99.90
18446;DHT22;9352;50.888;4.466;2023-11-18T04:57:04;7.80;99.90
18446;DHT22;9352;50.888;4.466;2023-11-18T04:59:36;7.80;99.90
18446;DHT22;9352;50.888;4.466;2023-11-18T05:02:02;7.80;99.90
18446;DHT22;9352;50.888;4.466;2023-11-18T05:04:29;7.90;99.90
18446;DHT22;9352;50.888;4.466;2023-11-18T05:06:56;7.90;99.90
18446;DHT22;9352;50.888;4.466;2023-11-18T05:09:23;7.80;99.90
18446;DHT22;9352;50.888;4.466;2023-11-18T05:11:51;7.90;99.90
18446;DHT22;9352;50.888;4.466;2023-11-18T05:14:18;7.90;99.90
18446;DHT22;9352;50.888;4.466;2023-11-18T05:16:46;7.90;99.90
18446;DHT22;9352;50.888;4.466;2023-11-18T05:19:13;7.90;99.90
18446;DHT22;9352;50.888;4.466;2023-11-18T05:21:42;8.00;99.90
18446;DHT22;9352;50.888;4.466;2023-11-18T05:24:09;8.00;99.90
18446;DHT22;9352;50.888;4.466;2023-11-18T05:26:36;8.00;99.90
18446;DHT22;9352;50.888;4.466;2023-11-18T05:29:03;8.10;99.90
18446;DHT22;9352;50.888;4.466;2023-11-18T05:31:31;8.10;99.90
18446;DHT22;9352;50.888;4.466;2023-11-18T05:34:01;8.10;99.90
18446;DHT22;9352;50.888;4.466;2023-11-18T05:36:28;8.10;99.90
18446;DHT22;9352;50.888;4.466;2023-11-18T05:39:02;8.10;99.90
18446;DHT22;9352;50.888;4.466;2023-11-18T05:41:30;8.10;99.90
18446;DHT22;9352;50.888;4.466;2023-11-18T05:43:57;8.20;99.90
18446;DHT22;9352;50.888;4.466;2023-11-18T05:46:25;8.10;99.90
18446;DHT22;9352;50.888;4.466;2023-11-18T05:48:55;8.20;99.90
18446;DHT22;9352;50.888;4.466;2023-11-18T05:51:25;8.20;99.90
18446;DHT22;9352;50.888;4.466;2023-11-18T05:53:52;8.20;99.90
18446;DHT22;9352;50.888;4.466;2023-11-18T05:56:20;8.20;99.90
18446;DHT22;9352;50.888;4.466;2023-11-18T05:58:48;8.20;99.90
18446;DHT22;9352;50.888;4.466;2023-11-18T06:01:15;8.20;99.90
18446;DHT22;9352;50.888;4.466;2023-11-18T06:03:43;8.30;99.90
18446;DHT22;9352;50.888;4.466;2023-11-18T06:06:13;8.30;99.90
18446;DHT22;9352;50.888;4.466;2023-11-18T06:08:43;8.30;99.90
18446;DHT22;9352;50.888;4.466;2023-11-18T06:11:10;8.30;99.90
18446;DHT22;9352;50.888;4.466;2023-11-18T06:13:41;8.30;99.90
18446;DHT22;9352;50.888;4.466;2023-11-18T06:16:11;8.40;99.90
18446;DHT22;9352;50.888;4.466;2023-11-18T06:18:40;8.40;99.90
18446;DHT22;9352;50.888;4.466;2023-11-18T06:21:10;8.40;99.90
18446;DHT22;9352;50.888;4.466;2023-11-18T06:23:37;8.40;99.90
18446;DHT22;9352;50.888;4.466;2023-11-18T06:26:05;8.40;99.90
18446;DHT22;9352;50.888;4.466;2023-11-18T06:28:32;8.40;99.90
18446;DHT22;9352;50.888;4.466;2023-11-18T06:31:00;8.40;99.90
18446;DHT22;9352;50.888;4.466;2023-11-18T06:33:27;8.40;99.90
18446;DHT22;9352;50.888;4.466;2023-11-18T06:35:54;8.40;99.90
18446;DHT22;9352;50.888;4.466;2023-11-18T06:38:22;8.40;99.90
18446;DHT22;9352;50.888;4.466;2023-11-18T06:40:50;8.40;99.90
18446;DHT22;9352;50.888;4.466;2023-11-18T06:43:20;8.40;99.90
18446;DHT22;9352;50.888;4.466;2023-11-18T06:45:47;8.50;99.90
18446;DHT22;9352;50.888;4.466;2023-11-18T06:48:14;8.50;99.90
18446;DHT22;9352;50.888;4.466;2023-11-18T06:50:45;8.50;99.90
18446;DHT22;9352;50.888;4.466;2023-11-18T06:53:13;8.50;99.90
18446;DHT22;9352;50.888;4.466;2023-11-18T06:55:41;8.60;99.90
18446;DHT22;9352;50.888;4.466;2023-11-18T06:58:08;8.60;99.90
18446;DHT22;9352;50.888;4.466;2023-11-18T07:00:37;8.60;99.90
18446;DHT22;9352;50.888;4.466;2023-11-18T07:03:04;8.60;99.90
18446;DHT22;9352;50.888;4.466;2023-11-18T07:05:32;8.60;99.90
18446;DHT22;9352;50.888;4.466;2023-11-18T07:07:59;8.70;99.90
18446;DHT22;9352;50.888;4.466;2023-11-18T07:10:26;8.70;99.90
18446;DHT22;9352;50.888;4.466;2023-11-18T07:12:54;8.70;99.90
18446;DHT22;9352;50.888;4.466;2023-11-18T07:15:21;8.70;99.90
18446;DHT22;9352;50.888;4.466;2023-11-18T07:17:49;8.70;99.90
18446;DHT22;9352;50.888;4.466;2023-11-18T07:20:17;8.70;99.90
18446;DHT22;9352;50.888;4.466;2023-11-18T07:22:44;8.70;99.90
18446;DHT22;9352;50.888;4.466;2023-11-18T07:25:10;8.80;99.90
18446;DHT22;9352;50.888;4.466;2023-11-18T07:27:38;8.80;99.90
18446;DHT22;9352;50.888;4.466;2023-11-18T07:30:06;8.70;99.90
18446;DHT22;9352;50.888;4.466;2023-11-18T07:32:36;8.70;99.90
18446;DHT22;9352;50.888;4.466;2023-11-18T07:35:06;8.80;99.90
18446;DHT22;9352;50.888;4.466;2023-11-18T07:37:35;8.80;99.90
18446;DHT22;9352;50.888;4.466;2023-11-18T07:40:03;8.80;99.90
18446;DHT22;9352;50.888;4.466;2023-11-18T07:42:31;8.80;99.90
18446;DHT22;9352;50.888;4.466;2023-11-18T07:45:00;8.80;99.90
18446;DHT22;9352;50.888;4.466;2023-11-18T07:47:29;8.80;99.90
18446;DHT22;9352;50.888;4.466;2023-11-18T07:49:57;8.80;99.90
18446;DHT22;9352;50.888;4.466;2023-11-18T07:52:26;8.80;99.90
18446;DHT22;9352;50.888;4.466;2023-11-18T07:54:54;8.80;99.90
18446;DHT22;9352;50.888;4.466;2023-11-18T07:57:22;8.80;99.90
18446;DHT22;9352;50.888;4.466;2023-11-18T07:59:49;8.80;99.90
18446;DHT22;9352;50.888;4.466;2023-11-18T08:02:16;8.80;99.90
18446;DHT22;9352;50.888;4.466;2023-11-18T08:04:45;8.80;99.90
18446;DHT22;9352;50.888;4.466;2023-11-18T08:07:12;8.80;99.90
18446;DHT22;9352;50.888;4.466;2023-11-18T08:09:40;8.80;99.90
18446;DHT22;9352;50.888;4.466;2023-11-18T08:12:08;8.70;99.90
18446;DHT22;9352;50.888;4.466;2023-11-18T08:14:36;8.80;99.90
18446;DHT22;9352;50.888;4.466;2023-11-18T08:17:03;8.70;99.90
18446;DHT22;9352;50.888;4.466;2023-11-18T08:19:31;8.70;99.90
18446;DHT22;9352;50.888;4.466;2023-11-18T08:21:59;8.70;99.90
18446;DHT22;9352;50.888;4.466;2023-11-18T08:24:26;8.70;99.90
18446;DHT22;9352;50.888;4.466;2023-11-18T08:26:58;8.70;99.90
18446;DHT22;9352;50.888;4.466;2023-11-18T08:29:25;8.70;99.90
18446;DHT22;9352;50.888;4.466;2023-11-18T08:31:56;8.70;99.90
18446;DHT22;9352;50.888;4.466;2023-11-18T08:34:23;8.70;99.90
18446;DHT22;9352;50.888;4.466;2023-11-18T08:36:51;8.70;99.90
18446;DHT22;9352;50.888;4.466;2023-11-18T08:39:18;8.70;99.90
18446;DHT22;9352;50.888;4.466;2023-11-18T08:41:46;8.80;99.90
18446;DHT22;9352;50.888;4.466;2023-11-18T08:44:17;8.80;99.90
18446;DHT22;9352;50.888;4.466;2023-11-18T08:46:44;8.80;99.90
18446;DHT22;9352;50.888;4.466;2023-11-18T08:49:12;8.90;99.90
18446;DHT22;9352;50.888;4.466;2023-11-18T08:51:39;8.80;99.90
18446;DHT22;9352;50.888;4.466;2023-11-18T08:54:07;8.90;99.90
18446;DHT22;9352;50.888;4.466;2023-11-18T08:56:48;8.90;99.90
18446;DHT22;9352;50.888;4.466;2023-11-18T08:59:18;8.90;99.90
18446;DHT22;9352;50.888;4.466;2023-11-18T09:01:50;8.90;99.90
18446;DHT22;9352;50.888;4.466;2023-11-18T09:04:21;8.90;99.90
18446;DHT22;9352;50.888;4.466;2023-11-18T09:06:49;8.90;99.90
18446;DHT22;9352;50.888;4.466;2023-11-18T09:09:17;9.00;99.90
18446;DHT22;9352;50.888;4.466;2023-11-18T09:11:52;9.00;99.90
18446;DHT22;9352;50.888;4.466;2023-11-18T09:14:23;9.10;99.90
18446;DHT22;9352;50.888;4.466;2023-11-18T09:16:51;9.10;99.90
18446;DHT22;9352;50.888;4.466;2023-11-18T09:19:20;9.10;99.90
18446;DHT22;9352;50.888;4.466;2023-11-18T09:21:48;9.20;99.90
18446;DHT22;9352;50.888;4.466;2023-11-18T09:24:15;9.20;99.90
18446;DHT22;9352;50.888;4.466;2023-11-18T09:26:45;9.20;99.90
18446;DHT22;9352;50.888;4.466;2023-11-18T09:29:15;9.20;99.90
18446;DHT22;9352;50.888;4.466;2023-11-18T09:31:46;9.20;99.90
18446;DHT22;9352;50.888;4.466;2023-11-18T09:34:14;9.20;99.90
18446;DHT22;9352;50.888;4.466;2023-11-18T09:36:42;9.30;99.90
18446;DHT22;9352;50.888;4.466;2023-11-18T09:39:10;9.20;99.90
18446;DHT22;9352;50.888;4.466;2023-11-18T09:41:54;9.20;99.90
18446;DHT22;9352;50.888;4.466;2023-11-18T09:44:21;9.20;99.90
18446;DHT22;9352;50.888;4.466;2023-11-18T09:46:51;9.20;99.90
18446;DHT22;9352;50.888;4.466;2023-11-18T09:49:27;9.20;99.90
18446;DHT22;9352;50.888;4.466;2023-11-18T09:51:59;9.30;99.90
18446;DHT22;9352;50.888;4.466;2023-11-18T09:54:36;9.30;99.90
18446;DHT22;9352;50.888;4.466;2023-11-18T09:57:09;9.30;99.90
18446;DHT22;9352;50.888;4.466;2023-11-18T09:59:42;9.40;99.90
18446;DHT22;9352;50.888;4.466;2023-11-18T10:02:14;9.40;99.90
18446;DHT22;9352;50.888;4.466;2023-11-18T10:04:44;9.50;99.90
18446;DHT22;9352;50.888;4.466;2023-11-18T10:07:12;9.50;99.90
18446;DHT22;9352;50.888;4.466;2023-11-18T10:09:42;9.40;99.90
18446;DHT22;9352;50.888;4.466;2023-11-18T10:12:09;9.50;99.90
18446;DHT22;9352;50.888;4.466;2023-11-18T10:14:42;9.50;99.90
18446;DHT22;9352;50.888;4.466;2023-11-18T10:17:10;9.50;99.90
18446;DHT22;9352;50.888;4.466;2023-11-18T10:19:54;9.60;99.90
18446;DHT22;9352;50.888;4.466;2023-11-18T10:22:26;9.60;99.90
18446;DHT22;9352;50.888;4.466;2023-11-18T10:24:53;9.60;99.90
18446;DHT22;9352;50.888;4.466;2023-11-18T10:27:23;9.60;99.90
18446;DHT22;9352;50.888;4.466;2023-11-18T10:29:54;9.60;99.90
18446;DHT22;9352;50.888;4.466;2023-11-18T10:32:21;9.60;99.90
18446;DHT22;9352;50.888;4.466;2023-11-18T10:34:55;9.60;99.90
18446;DHT22;9352;50.888;4.466;2023-11-18T10:37:23;9.60;99.90
18446;DHT22;9352;50.888;4.466;2023-11-18T10:39:50;9.60;99.90
18446;DHT22;9352;50.888;4.466;2023-11-18T10:42:17;9.70;99.90
18446;DHT22;9352;50.888;4.466;2023-11-18T10:44:58;9.70;99.90
18446;DHT22;9352;50.888;4.466;2023-11-18T10:47:25;9.70;99.90
18446;DHT22;9352;50.888;4.466;2023-11-18T10:49:55;9.70;99.90
18446;DHT22;9352;50.888;4.466;2023-11-18T10:52:23;9.70;99.90
18446;DHT22;9352;50.888;4.466;2023-11-18T10:54:51;9.70;99.90
18446;DHT22;9352;50.888;4.466;2023-11-18T10:57:20;9.70;99.90
18446;DHT22;9352;50.888;4.466;2023-11-18T10:59:59;9.70;99.90
18446;DHT22;9352;50.888;4.466;2023-11-18T11:02:30;9.70;99.90
18446;DHT22;9352;50.888;4.466;2023-11-18T11:05:02;9.70;99.90
18446;DHT22;9352;50.888;4.466;2023-11-18T11:07:29;9.70;99.90
18446;DHT22;9352;50.888;4.466;2023-11-18T11:09:59;9.70;99.90
18446;DHT22;9352;50.888;4.466;2023-11-18T11:12:33;9.70;99.90
18446;DHT22;9352;50.888;4.466;2023-11-18T11:15:09;9.70;99.90
18446;DHT22;9352;50.888;4.466;2023-11-18T11:17:50;9.60;99.90
18446;DHT22;9352;50.888;4.466;2023-11-18T11:20:22;9.60;99.90
18446;DHT22;9352;50.888;4.466;2023-11-18T11:23:00;9.70;99.90
18446;DHT22;9352;50.888;4.466;2023-11-18T11:25:38;9.70;99.90
18446;DHT22;9352;50.888;4.466;2023-11-18T11:28:11;9.70;99.90
18446;DHT22;9352;50.888;4.466;2023-11-18T11:30:45;9.70;99.90
18446;DHT22;9352;50.888;4.466;2023-11-18T11:33:16;9.70;99.90
18446;DHT22;9352;50.888;4.466;2023-11-18T11:35:52;9.70;99.90
18446;DHT22;9352;50.888;4.466;2023-11-18T11:38:23;9.70;99.90
18446;DHT22;9352;50.888;4.466;2023-11-18T11:40:52;9.70;99.90
18446;DHT22;9352;50.888;4.466;2023-11-18T11:43:21;9.70;99.90
18446;DHT22;9352;50.888;4.466;2023-11-18T11:45:49;9.80;99.90
18446;DHT22;9352;50.888;4.466;2023-11-18T11:48:18;9.80;99.90
18446;DHT22;9352;50.888;4.466;2023-11-18T11:51:15;9.80;99.90
18446;DHT22;9352;50.888;4.466;2023-11-18T11:53:49;9.80;99.90
18446;DHT22;9352;50.888;4.466;2023-11-18T11:56:19;9.80;99.90
18446;DHT22;9352;50.888;4.466;2023-11-18T11:58:50;9.90;99.90
18446;DHT22;9352;50.888;4.466;2023-11-18T12:01:25;9.90;99.90
18446;DHT22;9352;50.888;4.466;2023-11-18T12:03:57;9.90;99.90
18446;DHT22;9352;50.888;4.466;2023-11-18T12:06:33;10.00;99.90
18446;DHT22;9352;50.888;4.466;2023-11-18T12:09:06;10.00;99.90
18446;DHT22;9352;50.888;4.466;2023-11-18T12:11:36;10.00;99.90
18446;DHT22;9352;50.888;4.466;2023-11-18T12:14:06;10.00;99.90
18446;DHT22;9352;50.888;4.466;2023-11-18T12:17:08;10.00;99.90
18446;DHT22;9352;50.888;4.466;2023-11-18T12:19:36;9.90;99.90
18446;DHT22;9352;50.888;4.466;2023-11-18T12:22:12;9.90;99.90
18446;DHT22;9352;50.888;4.466;2023-11-18T12:25:28;9.90;99.90
18446;DHT22;9352;50.888;4.466;2023-11-18T12:27:44;9.90;99.90
18446;DHT22;9352;50.888;4.466;2023-11-18T12:30:39;9.80;99.90
18446;DHT22;9352;50.888;4.466;2023-11-18T12:33:09;9.80;99.90
18446;DHT22;9352;50.888;4.466;2023-11-18T12:38:57;9.90;99.90
18446;DHT22;9352;50.888;4.466;2023-11-18T12:41:34;9.90;99.90
18446;DHT22;9352;50.888;4.466;2023-11-18T12:44:15;9.90;99.90
18446;DHT22;9352;50.888;4.466;2023-11-18T12:46:53;9.90;99.90
18446;DHT22;9352;50.888;4.466;2023-11-18T12:49:21;9.90;99.90
18446;DHT22;9352;50.888;4.466;2023-11-18T12:51:50;9.80;99.90
18446;DHT22;9352;50.888;4.466;2023-11-18T12:54:20;9.80;99.90
18446;DHT22;9352;50.888;4.466;2023-11-18T12:56:50;9.90;99.90
18446;DHT22;9352;50.888;4.466;2023-11-18T12:59:19;9.90;99.90
18446;DHT22;9352;50.888;4.466;2023-11-18T13:01:47;9.90;99.90
18446;DHT22;9352;50.888;4.466;2023-11-18T13:04:18;9.90;99.90
18446;DHT22;9352;50.888;4.466;2023-11-18T13:06:46;9.90;99.90
18446;DHT22;9352;50.888;4.466;2023-11-18T13:09:14;9.90;99.90
18446;DHT22;9352;50.888;4.466;2023-11-18T13:11:53;9.90;99.90
18446;DHT22;9352;50.888;4.466;2023-11-18T13:14:23;9.90;99.90
18446;DHT22;9352;50.888;4.466;2023-11-18T13:16:52;9.90;99.90
18446;DHT22;9352;50.888;4.466;2023-11-18T13:19:26;9.90;99.90
18446;DHT22;9352;50.888;4.466;2023-11-18T13:21:57;10.00;99.90
18446;DHT22;9352;50.888;4.466;2023-11-18T13:24:25;10.00;99.90
18446;DHT22;9352;50.888;4.466;2023-11-18T13:26:55;10.00;99.90
18446;DHT22;9352;50.888;4.466;2023-11-18T13:29:23;10.00;99.90
18446;DHT22;9352;50.888;4.466;2023-11-18T13:31:51;10.00;99.90
18446;DHT22;9352;50.888;4.466;2023-11-18T13:34:18;10.00;99.90
18446;DHT22;9352;50.888;4.466;2023-11-18T13:36:46;10.10;99.90
18446;DHT22;9352;50.888;4.466;2023-11-18T13:39:16;10.10;99.90
18446;DHT22;9352;50.888;4.466;2023-11-18T13:41:43;10.10;99.90
18446;DHT22;9352;50.888;4.466;2023-11-18T13:44:13;10.10;99.90
18446;DHT22;9352;50.888;4.466;2023-11-18T13:46:41;10.10;99.90
18446;DHT22;9352;50.888;4.466;2023-11-18T13:49:08;10.10;99.90
18446;DHT22;9352;50.888;4.466;2023-11-18T13:51:35;10.10;99.90
18446;DHT22;9352;50.888;4.466;2023-11-18T13:54:03;10.10;99.90
18446;DHT22;9352;50.888;4.466;2023-11-18T13:56:30;10.10;99.90
18446;DHT22;9352;50.888;4.466;2023-11-18T13:58:58;10.10;99.90
18446;DHT22;9352;50.888;4.466;2023-11-18T14:01:27;10.20;99.90
18446;DHT22;9352;50.888;4.466;2023-11-18T14:03:54;10.20;99.90
18446;DHT22;9352;50.888;4.466;2023-11-18T14:06:27;10.20;99.90
18446;DHT22;9352;50.888;4.466;2023-11-18T14:08:54;10.20;99.90
18446;DHT22;9352;50.888;4.466;2023-11-18T14:11:21;10.20;99.90
18446;DHT22;9352;50.888;4.466;2023-11-18T14:13:49;10.10;99.90
18446;DHT22;9352;50.888;4.466;2023-11-18T14:16:19;10.20;99.90
18446;DHT22;9352;50.888;4.466;2023-11-18T14:18:50;10.20;99.90
18446;DHT22;9352;50.888;4.466;2023-11-18T14:21:17;10.20;99.90
18446;DHT22;9352;50.888;4.466;2023-11-18T14:23:45;10.20;99.90
18446;DHT22;9352;50.888;4.466;2023-11-18T14:26:12;10.20;99.90
18446;DHT22;9352;50.888;4.466;2023-11-18T14:28:39;10.20;99.90
18446;DHT22;9352;50.888;4.466;2023-11-18T14:31:08;10.20;99.90
18446;DHT22;9352;50.888;4.466;2023-11-18T14:33:36;10.20;99.90
18446;DHT22;9352;50.888;4.466;2023-11-18T14:36:05;10.20;99.90
18446;DHT22;9352;50.888;4.466;2023-11-18T14:38:34;10.30;99.90
18446;DHT22;9352;50.888;4.466;2023-11-18T14:41:02;10.30;99.90
18446;DHT22;9352;50.888;4.466;2023-11-18T14:43:30;10.30;99.90
18446;DHT22;9352;50.888;4.466;2023-11-18T14:45:57;10.30;99.90
18446;DHT22;9352;50.888;4.466;2023-11-18T14:48:24;10.30;99.90
18446;DHT22;9352;50.888;4.466;2023-11-18T14:50:51;10.30;99.90
18446;DHT22;9352;50.888;4.466;2023-11-18T14:53:19;10.40;99.90
18446;DHT22;9352;50.888;4.466;2023-11-18T14:55:46;10.40;99.90
18446;DHT22;9352;50.888;4.466;2023-11-18T14:58:13;10.40;99.90
18446;DHT22;9352;50.888;4.466;2023-11-18T15:00:40;10.40;99.90
18446;DHT22;9352;50.888;4.466;2023-11-18T15:03:08;10.40;99.90
18446;DHT22;9352;50.888;4.466;2023-11-18T15:05:35;10.40;99.90
18446;DHT22;9352;50.888;4.466;2023-11-18T15:08:04;10.50;99.90
18446;DHT22;9352;50.888;4.466;2023-11-18T15:10:36;10.50;99.90
18446;DHT22;9352;50.888;4.466;2023-11-18T15:13:05;10.50;99.90
18446;DHT22;9352;50.888;4.466;2023-11-18T15:15:32;10.50;99.90
18446;DHT22;9352;50.888;4.466;2023-11-18T15:18:00;10.50;99.90
18446;DHT22;9352;50.888;4.466;2023-11-18T15:20:29;10.50;99.90
18446;DHT22;9352;50.888;4.466;2023-11-18T15:22:56;10.50;99.90
18446;DHT22;9352;50.888;4.466;2023-11-18T15:25:23;10.60;99.90
18446;DHT22;9352;50.888;4.466;2023-11-18T15:27:51;10.60;99.90
18446;DHT22;9352;50.888;4.466;2023-11-18T15:30:18;10.60;99.90
18446;DHT22;9352;50.888;4.466;2023-11-18T15:32:47;10.60;99.90
18446;DHT22;9352;50.888;4.466;2023-11-18T15:35:14;10.60;99.90
18446;DHT22;9352;50.888;4.466;2023-11-18T15:37:43;10.60;99.90
18446;DHT22;9352;50.888;4.466;2023-11-18T15:40:12;10.60;99.90
18446;DHT22;9352;50.888;4.466;2023-11-18T15:42:41;10.70;99.90
18446;DHT22;9352;50.888;4.466;2023-11-18T15:45:10;10.70;99.90
18446;DHT22;9352;50.888;4.466;2023-11-18T15:47:38;10.70;99.90
18446;DHT22;9352;50.888;4.466;2023-11-18T15:50:06;10.80;99.90
18446;DHT22;9352;50.888;4.466;2023-11-18T15:52:34;10.80;99.90
18446;DHT22;9352;50.888;4.466;2023-11-18T15:55:02;10.80;99.90
18446;DHT22;9352;50.888;4.466;2023-11-18T15:57:36;10.80;99.90
18446;DHT22;9352;50.888;4.466;2023-11-18T16:00:04;10.80;99.90
18446;DHT22;9352;50.888;4.466;2023-11-18T16:02:36;10.90;99.90
18446;DHT22;9352;50.888;4.466;2023-11-18T16:05:03;10.90;99.90
18446;DHT22;9352;50.888;4.466;2023-11-18T16:07:31;10.90;99.90
18446;DHT22;9352;50.888;4.466;2023-11-18T16:09:58;10.90;99.90
18446;DHT22;9352;50.888;4.466;2023-11-18T16:12:25;10.90;99.90
18446;DHT22;9352;50.888;4.466;2023-11-18T16:14:54;10.90;99.90